Apopka, FL

7:11 PM EDT on October 25, 2014 (GMT -0400)
Apopka Weather | Change Station
CLOSE
Current Station
Personal Weather Station
Location: Apopka, FL
Elevation: 115 ft
Nearby Weather Stations

Elev 115 ft 28.70 °N, 81.51 °W | Updated 7 seconds ago

Clear
Clear
69.9 °F
Feels Like 69.9 °F
N
2.3
Wind Variable Wind from East
Gusts 2.3 mph

Today
High -- | Low -- °F
--% Chance of Precip.
Yesterday
High -- | Low -- °F
Precip. -- in
7:33 AM 6:46 PM
Waxing Crescent, 5% visible
Pressure 29.96 in
Visibility 10.0 miles
Clouds Clear
Dew Point 55.8 °F
Humidity 61%
Rainfall 0.00 in
Snow Depth Not available.
UV 0 out of 12
Pollen 5.80 out of 12
Ozone Good
PM2.5 Good
Flu Activity Local Activity
METAR KORL 252253Z 34005KT 10SM CLR 25/13 A2995 RMK AO2 SLP145 T02500133

More Conditions Fewer Conditions

Pressure 29.96 in
Visibility 10.0 miles
Clouds Clear
Dew Point 55.8 °F
Humidity 61%
Rainfall 0.00 in
Snow Depth Not available.
UV 0 out of 12
Pollen 5.80 out of 12
Ozone Good
PM2.5 Good
Flu Activity Local Activity
METAR KORL 252253Z 34005KT 10SM CLR 25/13 A2995 RMK AO2 SLP145 T02500133

More Conditions Fewer Conditions

10-Day Weather Forecast

Almanac

Astronomy

Oct. 25, 2014 Rise Set
Actual Time 7:33 AM EDT 6:46 PM EDT
Civil Twilight 7:09 AM EDT 7:10 PM EDT
Nautical Twilight 6:41 AM EDT 7:38 PM EDT
Astronomical Twilight 6:13 AM EDT 8:05 PM EDT
Moon 9:05 AM EDT 8:15 PM EDT
Length of Visible Light 12h 01m
Length of Day
11h 13m
Tomorrow will be 1m 33s shorter.
Waxing Crescent, 5% of the Moon is Illuminated
Today
Waxing Crescent
Oct 30
First Quarter
Nov 6
Full
Nov 14
Last Quarter
Nov 22
New

Today's Extremes

State Highs State Lows

Community

WunderPhotos

Upload Photos

1,765,024 photos uploaded!

Nearby

Air Quality

  Air Quality AQ Index Pollutant
Yesterday Good
OZONE
Yesterday Good
PM2.5
Current Good
OZONE
Current Good
PM2.5
Saturday Good
OZONE
Sunday Good
OZONE

Snow Depth

Station Depth Elevation
No new snow has been reported.

Earthquake Activity

City Distance Mag. Time & Date
No recent earthquake activity has been reported nearby.
Minimum magnitude displayed is 2.5.

Coastal Water Temperatures

Place Temperature
No Stations Reporting

Nearby Weather Stations